sensor_id;sensor_type;location;lat;lon;timestamp;temperature;humidity
4425;DHT22;2225;53.568;13.266;2023-05-16T00:00:39;16.10;86.20
4425;DHT22;2225;53.568;13.266;2023-05-16T00:03:06;16.10;86.30
4425;DHT22;2225;53.568;13.266;2023-05-16T00:05:34;16.10;86.40
4425;DHT22;2225;53.568;13.266;2023-05-16T00:08:01;16.10;86.30
4425;DHT22;2225;53.568;13.266;2023-05-16T00:10:28;16.00;86.40
4425;DHT22;2225;53.568;13.266;2023-05-16T00:12:55;16.00;86.50
4425;DHT22;2225;53.568;13.266;2023-05-16T00:15:23;16.00;86.70
4425;DHT22;2225;53.568;13.266;2023-05-16T00:17:50;16.00;87.20
4425;DHT22;2225;53.568;13.266;2023-05-16T00:20:18;15.90;87.20
4425;DHT22;2225;53.568;13.266;2023-05-16T00:22:49;15.90;87.20
4425;DHT22;2225;53.568;13.266;2023-05-16T00:25:17;15.90;87.40
4425;DHT22;2225;53.568;13.266;2023-05-16T00:27:44;15.80;87.50
4425;DHT22;2225;53.568;13.266;2023-05-16T00:30:11;15.90;87.90
4425;DHT22;2225;53.568;13.266;2023-05-16T00:32:38;15.80;88.10
4425;DHT22;2225;53.568;13.266;2023-05-16T00:35:06;15.80;87.90
4425;DHT22;2225;53.568;13.266;2023-05-16T00:37:36;15.80;88.20
4425;DHT22;2225;53.568;13.266;2023-05-16T00:40:04;15.80;88.20
4425;DHT22;2225;53.568;13.266;2023-05-16T00:42:32;15.80;88.30
4425;DHT22;2225;53.568;13.266;2023-05-16T00:44:59;15.80;88.30
4425;DHT22;2225;53.568;13.266;2023-05-16T00:47:27;15.80;88.40
4425;DHT22;2225;53.568;13.266;2023-05-16T00:49:54;15.80;88.60
4425;DHT22;2225;53.568;13.266;2023-05-16T00:52:22;15.80;88.60
4425;DHT22;2225;53.568;13.266;2023-05-16T00:54:50;15.80;88.70
4425;DHT22;2225;53.568;13.266;2023-05-16T00:57:17;15.80;88.80
4425;DHT22;2225;53.568;13.266;2023-05-16T00:59:45;15.80;89.00
4425;DHT22;2225;53.568;13.266;2023-05-16T01:02:13;15.70;89.10
4425;DHT22;2225;53.568;13.266;2023-05-16T01:04:40;15.70;89.30
4425;DHT22;2225;53.568;13.266;2023-05-16T01:07:08;15.60;89.20
4425;DHT22;2225;53.568;13.266;2023-05-16T01:09:36;15.60;89.40
4425;DHT22;2225;53.568;13.266;2023-05-16T01:18:36;15.60;90.10
4425;DHT22;2225;53.568;13.266;2023-05-16T01:20:53;15.50;90.40
4425;DHT22;2225;53.568;13.266;2023-05-16T01:23:49;15.50;90.20
4425;DHT22;2225;53.568;13.266;2023-05-16T01:26:24;15.50;90.50
4425;DHT22;2225;53.568;13.266;2023-05-16T01:28:53;15.40;90.20
4425;DHT22;2225;53.568;13.266;2023-05-16T01:31:21;15.40;90.30
4425;DHT22;2225;53.568;13.266;2023-05-16T01:33:50;15.40;90.40
4425;DHT22;2225;53.568;13.266;2023-05-16T01:36:24;15.30;90.50
4425;DHT22;2225;53.568;13.266;2023-05-16T01:39:11;15.30;90.80
4425;DHT22;2225;53.568;13.266;2023-05-16T01:42:03;15.30;90.90
4425;DHT22;2225;53.568;13.266;2023-05-16T01:44:49;15.30;91.00
4425;DHT22;2225;53.568;13.266;2023-05-16T01:47:22;15.30;90.90
4425;DHT22;2225;53.568;13.266;2023-05-16T01:50:14;15.20;90.80
4425;DHT22;2225;53.568;13.266;2023-05-16T01:52:48;15.20;91.10
4425;DHT22;2225;53.568;13.266;2023-05-16T01:55:28;15.20;90.90
4425;DHT22;2225;53.568;13.266;2023-05-16T01:58:06;15.10;91.20
4425;DHT22;2225;53.568;13.266;2023-05-16T02:00:34;15.10;91.10
4425;DHT22;2225;53.568;13.266;2023-05-16T02:03:01;15.10;91.20
4425;DHT22;2225;53.568;13.266;2023-05-16T02:05:28;15.10;91.30
4425;DHT22;2225;53.568;13.266;2023-05-16T02:07:57;15.10;91.30
4425;DHT22;2225;53.568;13.266;2023-05-16T02:10:25;15.00;91.40
4425;DHT22;2225;53.568;13.266;2023-05-16T02:12:53;15.00;91.70
4425;DHT22;2225;53.568;13.266;2023-05-16T02:15:20;15.00;92.10
4425;DHT22;2225;53.568;13.266;2023-05-16T02:17:47;15.00;92.10
4425;DHT22;2225;53.568;13.266;2023-05-16T02:20:14;15.00;92.30
4425;DHT22;2225;53.568;13.266;2023-05-16T02:22:41;15.00;92.60
4425;DHT22;2225;53.568;13.266;2023-05-16T02:25:09;15.10;93.00
4425;DHT22;2225;53.568;13.266;2023-05-16T02:27:36;15.10;93.10
4425;DHT22;2225;53.568;13.266;2023-05-16T02:30:03;15.10;93.00
4425;DHT22;2225;53.568;13.266;2023-05-16T02:32:31;15.20;93.20
4425;DHT22;2225;53.568;13.266;2023-05-16T02:34:59;15.30;93.30
4425;DHT22;2225;53.568;13.266;2023-05-16T02:37:26;15.30;93.40
4425;DHT22;2225;53.568;13.266;2023-05-16T02:39:53;15.30;93.80
4425;DHT22;2225;53.568;13.266;2023-05-16T02:42:20;15.40;93.80
4425;DHT22;2225;53.568;13.266;2023-05-16T02:44:47;15.50;93.70
4425;DHT22;2225;53.568;13.266;2023-05-16T02:47:13;15.60;94.10
4425;DHT22;2225;53.568;13.266;2023-05-16T02:49:42;15.60;94.00
4425;DHT22;2225;53.568;13.266;2023-05-16T02:52:09;15.70;94.10
4425;DHT22;2225;53.568;13.266;2023-05-16T02:54:37;15.70;94.20
4425;DHT22;2225;53.568;13.266;2023-05-16T02:57:04;15.70;94.10
4425;DHT22;2225;53.568;13.266;2023-05-16T02:59:31;15.80;94.20
4425;DHT22;2225;53.568;13.266;2023-05-16T03:01:58;15.90;94.20
4425;DHT22;2225;53.568;13.266;2023-05-16T03:04:25;15.90;94.20
4425;DHT22;2225;53.568;13.266;2023-05-16T03:06:52;15.90;94.20
4425;DHT22;2225;53.568;13.266;2023-05-16T03:09:19;16.00;94.10
4425;DHT22;2225;53.568;13.266;2023-05-16T03:11:47;16.00;94.30
4425;DHT22;2225;53.568;13.266;2023-05-16T03:14:14;16.00;94.20
4425;DHT22;2225;53.568;13.266;2023-05-16T03:16:41;16.00;94.20
4425;DHT22;2225;53.568;13.266;2023-05-16T03:19:10;16.10;94.20
4425;DHT22;2225;53.568;13.266;2023-05-16T03:21:37;16.10;94.10
4425;DHT22;2225;53.568;13.266;2023-05-16T03:24:05;16.10;94.30
4425;DHT22;2225;53.568;13.266;2023-05-16T03:26:32;16.10;94.20
4425;DHT22;2225;53.568;13.266;2023-05-16T03:28:59;16.10;94.10
4425;DHT22;2225;53.568;13.266;2023-05-16T03:31:26;16.10;94.10
4425;DHT22;2225;53.568;13.266;2023-05-16T03:33:52;16.10;94.20
4425;DHT22;2225;53.568;13.266;2023-05-16T03:36:20;16.20;94.20
4425;DHT22;2225;53.568;13.266;2023-05-16T03:38:47;16.20;94.10
4425;DHT22;2225;53.568;13.266;2023-05-16T03:41:14;16.20;94.30
4425;DHT22;2225;53.568;13.266;2023-05-16T03:43:41;16.20;94.00
4425;DHT22;2225;53.568;13.266;2023-05-16T03:46:08;16.20;94.10
4425;DHT22;2225;53.568;13.266;2023-05-16T03:48:35;16.20;94.20
4425;DHT22;2225;53.568;13.266;2023-05-16T03:51:02;16.20;94.10
4425;DHT22;2225;53.568;13.266;2023-05-16T03:53:29;16.20;94.00
4425;DHT22;2225;53.568;13.266;2023-05-16T03:55:56;16.20;93.90
4425;DHT22;2225;53.568;13.266;2023-05-16T03:58:23;16.20;93.80
4425;DHT22;2225;53.568;13.266;2023-05-16T04:00:50;16.20;93.70
4425;DHT22;2225;53.568;13.266;2023-05-16T04:03:17;16.10;93.70
4425;DHT22;2225;53.568;13.266;2023-05-16T04:05:44;16.10;93.70
4425;DHT22;2225;53.568;13.266;2023-05-16T04:08:11;16.10;93.70
4425;DHT22;2225;53.568;13.266;2023-05-16T04:10:38;16.10;93.70
4425;DHT22;2225;53.568;13.266;2023-05-16T04:13:04;16.10;93.70
4425;DHT22;2225;53.568;13.266;2023-05-16T04:15:31;16.10;93.80
4425;DHT22;2225;53.568;13.266;2023-05-16T04:17:59;16.10;93.70
4425;DHT22;2225;53.568;13.266;2023-05-16T04:20:26;16.00;93.60
4425;DHT22;2225;53.568;13.266;2023-05-16T04:22:53;16.00;93.60
4425;DHT22;2225;53.568;13.266;2023-05-16T04:25:20;16.00;93.60
4425;DHT22;2225;53.568;13.266;2023-05-16T04:27:47;15.90;93.60
4425;DHT22;2225;53.568;13.266;2023-05-16T04:30:14;15.90;93.60
4425;DHT22;2225;53.568;13.266;2023-05-16T04:32:41;15.90;93.60
4425;DHT22;2225;53.568;13.266;2023-05-16T04:35:08;15.90;93.60
4425;DHT22;2225;53.568;13.266;2023-05-16T04:37:35;15.80;93.60
4425;DHT22;2225;53.568;13.266;2023-05-16T04:40:03;15.80;93.60
4425;DHT22;2225;53.568;13.266;2023-05-16T04:42:33;15.80;93.60
4425;DHT22;2225;53.568;13.266;2023-05-16T04:45:00;15.90;93.60
4425;DHT22;2225;53.568;13.266;2023-05-16T04:47:29;15.90;93.50
4425;DHT22;2225;53.568;13.266;2023-05-16T04:49:57;15.90;93.50
4425;DHT22;2225;53.568;13.266;2023-05-16T04:52:24;15.90;93.40
4425;DHT22;2225;53.568;13.266;2023-05-16T04:54:51;15.90;93.20
4425;DHT22;2225;53.568;13.266;2023-05-16T04:57:18;15.90;93.20
4425;DHT22;2225;53.568;13.266;2023-05-16T04:59:45;15.80;93.20
4425;DHT22;2225;53.568;13.266;2023-05-16T05:02:11;15.80;93.20
4425;DHT22;2225;53.568;13.266;2023-05-16T05:04:38;15.80;93.20
4425;DHT22;2225;53.568;13.266;2023-05-16T05:07:06;15.70;93.10
4425;DHT22;2225;53.568;13.266;2023-05-16T05:09:33;15.70;93.20
4425;DHT22;2225;53.568;13.266;2023-05-16T05:12:00;15.70;93.20
4425;DHT22;2225;53.568;13.266;2023-05-16T05:14:27;15.70;93.20
4425;DHT22;2225;53.568;13.266;2023-05-16T05:16:54;15.70;93.20
4425;DHT22;2225;53.568;13.266;2023-05-16T05:19:21;15.70;93.10
4425;DHT22;2225;53.568;13.266;2023-05-16T05:21:48;15.70;93.10
4425;DHT22;2225;53.568;13.266;2023-05-16T05:24:15;15.70;93.10
4425;DHT22;2225;53.568;13.266;2023-05-16T05:26:42;15.70;93.10
4425;DHT22;2225;53.568;13.266;2023-05-16T05:29:09;15.70;93.10
4425;DHT22;2225;53.568;13.266;2023-05-16T05:31:35;15.70;93.10
4425;DHT22;2225;53.568;13.266;2023-05-16T05:34:02;15.60;93.10
4425;DHT22;2225;53.568;13.266;2023-05-16T05:36:29;15.60;93.10
4425;DHT22;2225;53.568;13.266;2023-05-16T05:38:57;15.60;93.10
4425;DHT22;2225;53.568;13.266;2023-05-16T05:41:24;15.60;93.00
4425;DHT22;2225;53.568;13.266;2023-05-16T05:43:51;15.60;93.10
4425;DHT22;2225;53.568;13.266;2023-05-16T05:46:18;15.60;93.10
4425;DHT22;2225;53.568;13.266;2023-05-16T05:48:45;15.60;93.00
4425;DHT22;2225;53.568;13.266;2023-05-16T05:51:12;15.60;93.10
4425;DHT22;2225;53.568;13.266;2023-05-16T05:53:40;15.60;92.90
4425;DHT22;2225;53.568;13.266;2023-05-16T05:56:07;15.60;92.90
4425;DHT22;2225;53.568;13.266;2023-05-16T05:58:34;15.60;93.20
4425;DHT22;2225;53.568;13.266;2023-05-16T06:01:01;15.60;92.80
4425;DHT22;2225;53.568;13.266;2023-05-16T06:03:28;15.60;92.80
4425;DHT22;2225;53.568;13.266;2023-05-16T06:05:55;15.50;92.80
4425;DHT22;2225;53.568;13.266;2023-05-16T06:08:22;15.50;92.80
4425;DHT22;2225;53.568;13.266;2023-05-16T06:10:48;15.50;92.90
4425;DHT22;2225;53.568;13.266;2023-05-16T06:13:15;15.50;93.20
4425;DHT22;2225;53.568;13.266;2023-05-16T06:15:42;15.50;92.90
4425;DHT22;2225;53.568;13.266;2023-05-16T06:18:09;15.50;92.90
4425;DHT22;2225;53.568;13.266;2023-05-16T06:20:36;15.40;92.80
4425;DHT22;2225;53.568;13.266;2023-05-16T06:23:03;15.40;92.80
4425;DHT22;2225;53.568;13.266;2023-05-16T06:25:30;15.40;92.80
4425;DHT22;2225;53.568;13.266;2023-05-16T06:27:57;15.50;92.80
4425;DHT22;2225;53.568;13.266;2023-05-16T06:30:24;15.50;92.80
4425;DHT22;2225;53.568;13.266;2023-05-16T06:32:51;15.50;92.80
4425;DHT22;2225;53.568;13.266;2023-05-16T06:35:18;15.50;92.60
4425;DHT22;2225;53.568;13.266;2023-05-16T06:37:45;15.50;92.50
4425;DHT22;2225;53.568;13.266;2023-05-16T06:40:12;15.50;92.30
4425;DHT22;2225;53.568;13.266;2023-05-16T06:42:39;15.50;92.20
4425;DHT22;2225;53.568;13.266;2023-05-16T06:45:07;15.50;92.10
4425;DHT22;2225;53.568;13.266;2023-05-16T06:47:34;15.50;92.10
4425;DHT22;2225;53.568;13.266;2023-05-16T06:50:01;15.60;92.20
4425;DHT22;2225;53.568;13.266;2023-05-16T06:52:29;15.60;92.00
4425;DHT22;2225;53.568;13.266;2023-05-16T06:54:56;15.60;91.80
4425;DHT22;2225;53.568;13.266;2023-05-16T06:57:23;15.60;91.70
4425;DHT22;2225;53.568;13.266;2023-05-16T06:59:50;15.60;91.50
4425;DHT22;2225;53.568;13.266;2023-05-16T07:02:17;15.60;91.40
4425;DHT22;2225;53.568;13.266;2023-05-16T07:04:44;15.60;91.40
4425;DHT22;2225;53.568;13.266;2023-05-16T07:07:11;15.60;91.20
4425;DHT22;2225;53.568;13.266;2023-05-16T07:09:38;15.70;91.00
4425;DHT22;2225;53.568;13.266;2023-05-16T07:12:06;15.70;90.60
4425;DHT22;2225;53.568;13.266;2023-05-16T07:14:32;15.70;90.10
4425;DHT22;2225;53.568;13.266;2023-05-16T07:17:00;15.70;90.10
4425;DHT22;2225;53.568;13.266;2023-05-16T07:19:27;15.80;90.00
4425;DHT22;2225;53.568;13.266;2023-05-16T07:21:54;15.80;89.00
4425;DHT22;2225;53.568;13.266;2023-05-16T07:24:21;15.80;89.50
4425;DHT22;2225;53.568;13.266;2023-05-16T07:26:48;15.90;88.90
4425;DHT22;2225;53.568;13.266;2023-05-16T07:29:15;15.90;88.20
4425;DHT22;2225;53.568;13.266;2023-05-16T07:31:42;15.90;87.80
4425;DHT22;2225;53.568;13.266;2023-05-16T07:34:09;15.90;87.40
4425;DHT22;2225;53.568;13.266;2023-05-16T07:36:37;15.90;87.60
4425;DHT22;2225;53.568;13.266;2023-05-16T07:39:04;15.90;86.40
4425;DHT22;2225;53.568;13.266;2023-05-16T07:41:31;15.90;86.70
4425;DHT22;2225;53.568;13.266;2023-05-16T07:43:58;15.90;87.00
4425;DHT22;2225;53.568;13.266;2023-05-16T07:46:25;16.00;86.80
4425;DHT22;2225;53.568;13.266;2023-05-16T07:48:52;16.00;87.00
4425;DHT22;2225;53.568;13.266;2023-05-16T07:51:19;16.00;87.10
4425;DHT22;2225;53.568;13.266;2023-05-16T07:53:46;16.10;86.40
4425;DHT22;2225;53.568;13.266;2023-05-16T07:56:13;16.10;86.40
4425;DHT22;2225;53.568;13.266;2023-05-16T07:58:40;16.10;86.30
4425;DHT22;2225;53.568;13.266;2023-05-16T08:01:07;16.10;86.10
4425;DHT22;2225;53.568;13.266;2023-05-16T08:03:35;16.10;86.10
4425;DHT22;2225;53.568;13.266;2023-05-16T08:06:02;16.20;85.90
4425;DHT22;2225;53.568;13.266;2023-05-16T08:08:29;16.20;86.10
4425;DHT22;2225;53.568;13.266;2023-05-16T08:10:56;16.20;85.90
4425;DHT22;2225;53.568;13.266;2023-05-16T08:13:23;16.30;85.90
4425;DHT22;2225;53.568;13.266;2023-05-16T08:15:50;16.30;86.00
4425;DHT22;2225;53.568;13.266;2023-05-16T08:18:17;16.40;86.00
4425;DHT22;2225;53.568;13.266;2023-05-16T08:20:48;16.40;85.60
4425;DHT22;2225;53.568;13.266;2023-05-16T08:23:15;16.40;85.50
4425;DHT22;2225;53.568;13.266;2023-05-16T08:25:42;16.40;84.90
4425;DHT22;2225;53.568;13.266;2023-05-16T08:28:09;16.40;84.80
4425;DHT22;2225;53.568;13.266;2023-05-16T08:30:35;16.40;84.80
4425;DHT22;2225;53.568;13.266;2023-05-16T08:33:02;16.40;84.80
4425;DHT22;2225;53.568;13.266;2023-05-16T08:35:31;16.40;84.60
4425;DHT22;2225;53.568;13.266;2023-05-16T08:37:58;16.40;84.80
4425;DHT22;2225;53.568;13.266;2023-05-16T08:40:25;16.30;84.80
4425;DHT22;2225;53.568;13.266;2023-05-16T08:42:54;16.30;85.10
4425;DHT22;2225;53.568;13.266;2023-05-16T08:45:21;16.30;84.50
4425;DHT22;2225;53.568;13.266;2023-05-16T08:47:49;16.30;84.80
4425;DHT22;2225;53.568;13.266;2023-05-16T08:50:17;16.30;85.00
4425;DHT22;2225;53.568;13.266;2023-05-16T08:52:46;16.30;85.10
4425;DHT22;2225;53.568;13.266;2023-05-16T08:55:19;16.40;85.10
4425;DHT22;2225;53.568;13.266;2023-05-16T08:57:50;16.40;84.90
4425;DHT22;2225;53.568;13.266;2023-05-16T09:00:18;16.50;84.90
4425;DHT22;2225;53.568;13.266;2023-05-16T09:02:45;16.50;84.80
4425;DHT22;2225;53.568;13.266;2023-05-16T09:05:14;16.50;85.20
4425;DHT22;2225;53.568;13.266;2023-05-16T09:07:43;16.50;83.80
4425;DHT22;2225;53.568;13.266;2023-05-16T09:10:11;16.50;83.70
4425;DHT22;2225;53.568;13.266;2023-05-16T09:12:39;16.50;83.60
4425;DHT22;2225;53.568;13.266;2023-05-16T09:15:08;16.50;83.90
4425;DHT22;2225;53.568;13.266;2023-05-16T09:17:43;16.50;84.10
4425;DHT22;2225;53.568;13.266;2023-05-16T09:20:16;16.50;84.20
4425;DHT22;2225;53.568;13.266;2023-05-16T09:22:52;16.50;84.50
4425;DHT22;2225;53.568;13.266;2023-05-16T09:25:21;16.50;84.70
4425;DHT22;2225;53.568;13.266;2023-05-16T09:27:58;16.60;84.90
4425;DHT22;2225;53.568;13.266;2023-05-16T09:30:29;16.60;84.80
4425;DHT22;2225;53.568;13.266;2023-05-16T09:32:57;16.60;84.70
4425;DHT22;2225;53.568;13.266;2023-05-16T09:35:25;16.60;84.60
4425;DHT22;2225;53.568;13.266;2023-05-16T09:37:55;16.60;84.20
4425;DHT22;2225;53.568;13.266;2023-05-16T09:40:23;16.60;84.30
4425;DHT22;2225;53.568;13.266;2023-05-16T09:43:04;16.60;84.40
4425;DHT22;2225;53.568;13.266;2023-05-16T09:45:33;16.60;84.70
4425;DHT22;2225;53.568;13.266;2023-05-16T09:48:07;16.60;85.00
4425;DHT22;2225;53.568;13.266;2023-05-16T09:50:36;16.60;84.60
4425;DHT22;2225;53.568;13.266;2023-05-16T09:53:03;16.50;84.50
4425;DHT22;2225;53.568;13.266;2023-05-16T09:55:31;16.50;84.80
4425;DHT22;2225;53.568;13.266;2023-05-16T09:58:00;16.50;84.50
4425;DHT22;2225;53.568;13.266;2023-05-16T10:00:32;16.50;84.60
4425;DHT22;2225;53.568;13.266;2023-05-16T10:03:00;16.60;84.40
4425;DHT22;2225;53.568;13.266;2023-05-16T10:05:32;16.60;84.10
4425;DHT22;2225;53.568;13.266;2023-05-16T10:08:01;16.50;83.60
4425;DHT22;2225;53.568;13.266;2023-05-16T10:10:29;16.60;83.70
4425;DHT22;2225;53.568;13.266;2023-05-16T10:12:58;16.50;83.20
4425;DHT22;2225;53.568;13.266;2023-05-16T10:15:27;16.50;83.20
4425;DHT22;2225;53.568;13.266;2023-05-16T10:17:56;16.40;83.60
4425;DHT22;2225;53.568;13.266;2023-05-16T10:20:27;16.40;83.40
4425;DHT22;2225;53.568;13.266;2023-05-16T10:22:55;16.40;83.30
4425;DHT22;2225;53.568;13.266;2023-05-16T10:25:34;16.40;83.00
4425;DHT22;2225;53.568;13.266;2023-05-16T10:28:05;16.40;82.80
4425;DHT22;2225;53.568;13.266;2023-05-16T10:30:33;16.40;82.70
4425;DHT22;2225;53.568;13.266;2023-05-16T10:33:01;16.30;82.60
4425;DHT22;2225;53.568;13.266;2023-05-16T10:35:30;16.40;82.90
4425;DHT22;2225;53.568;13.266;2023-05-16T10:37:58;16.40;83.00
4425;DHT22;2225;53.568;13.266;2023-05-16T10:40:26;16.40;83.10
4425;DHT22;2225;53.568;13.266;2023-05-16T10:42:59;16.50;82.80
4425;DHT22;2225;53.568;13.266;2023-05-16T10:45:27;16.60;82.20
4425;DHT22;2225;53.568;13.266;2023-05-16T10:47:59;16.70;82.10
4425;DHT22;2225;53.568;13.266;2023-05-16T10:50:44;16.80;81.40
4425;DHT22;2225;53.568;13.266;2023-05-16T10:53:22;16.90;80.00
4425;DHT22;2225;53.568;13.266;2023-05-16T11:06:27;17.10;77.40
4425;DHT22;2225;53.568;13.266;2023-05-16T11:17:12;17.40;76.10
4425;DHT22;2225;53.568;13.266;2023-05-16T11:19:54;17.60;75.10
4425;DHT22;2225;53.568;13.266;2023-05-16T11:22:27;17.80;75.20
4425;DHT22;2225;53.568;13.266;2023-05-16T11:27:28;18.00;72.60
4425;DHT22;2225;53.568;13.266;2023-05-16T11:32:37;18.20;70.20
4425;DHT22;2225;53.568;13.266;2023-05-16T11:35:07;18.20;70.70
4425;DHT22;2225;53.568;13.266;2023-05-16T11:37:51;18.20;69.70
4425;DHT22;2225;53.568;13.266;2023-05-16T11:40:19;18.30;69.90
4425;DHT22;2225;53.568;13.266;2023-05-16T11:42:46;18.30;69.70
4425;DHT22;2225;53.568;13.266;2023-05-16T11:45:16;18.40;68.60
4425;DHT22;2225;53.568;13.266;2023-05-16T11:47:44;18.40;68.50
4425;DHT22;2225;53.568;13.266;2023-05-16T11:50:15;18.40;69.40
4425;DHT22;2225;53.568;13.266;2023-05-16T11:52:48;18.50;69.20
4425;DHT22;2225;53.568;13.266;2023-05-16T11:55:21;18.60;69.10
4425;DHT22;2225;53.568;13.266;2023-05-16T11:58:06;18.60;66.10
4425;DHT22;2225;53.568;13.266;2023-05-16T12:00:33;18.70;65.90
4425;DHT22;2225;53.568;13.266;2023-05-16T12:03:02;18.80;65.10
4425;DHT22;2225;53.568;13.266;2023-05-16T12:05:31;18.90;64.30
4425;DHT22;2225;53.568;13.266;2023-05-16T12:08:00;19.10;65.10
4425;DHT22;2225;53.568;13.266;2023-05-16T12:10:30;19.20;63.70
4425;DHT22;2225;53.568;13.266;2023-05-16T12:13:00;19.30;63.50
4425;DHT22;2225;53.568;13.266;2023-05-16T12:15:28;19.40;64.30
4425;DHT22;2225;53.568;13.266;2023-05-16T12:17:56;19.60;63.50
4425;DHT22;2225;53.568;13.266;2023-05-16T12:20:23;19.70;61.20
4425;DHT22;2225;53.568;13.266;2023-05-16T12:22:51;19.80;59.30
4425;DHT22;2225;53.568;13.266;2023-05-16T12:28:00;20.10;59.60
4425;DHT22;2225;53.568;13.266;2023-05-16T12:30:30;20.20;58.10
4425;DHT22;2225;53.568;13.266;2023-05-16T12:32:59;20.40;57.90
4425;DHT22;2225;53.568;13.266;2023-05-16T12:35:34;20.40;58.20
4425;DHT22;2225;53.568;13.266;2023-05-16T12:38:04;20.50;58.50
4425;DHT22;2225;53.568;13.266;2023-05-16T12:40:35;20.60;57.80
4425;DHT22;2225;53.568;13.266;2023-05-16T12:43:02;20.70;55.90
4425;DHT22;2225;53.568;13.266;2023-05-16T12:45:30;20.80;56.90
4425;DHT22;2225;53.568;13.266;2023-05-16T12:48:04;20.90;56.30
4425;DHT22;2225;53.568;13.266;2023-05-16T12:50:32;21.00;55.70
4425;DHT22;2225;53.568;13.266;2023-05-16T12:53:00;21.00;55.30
4425;DHT22;2225;53.568;13.266;2023-05-16T12:55:26;21.10;55.60
4425;DHT22;2225;53.568;13.266;2023-05-16T12:57:55;21.20;56.00
4425;DHT22;2225;53.568;13.266;2023-05-16T13:00:23;21.30;55.30
4425;DHT22;2225;53.568;13.266;2023-05-16T13:02:50;21.40;55.40
4425;DHT22;2225;53.568;13.266;2023-05-16T13:05:17;21.40;54.90
4425;DHT22;2225;53.568;13.266;2023-05-16T13:07:46;21.50;55.50
4425;DHT22;2225;53.568;13.266;2023-05-16T13:10:12;21.50;53.60
4425;DHT22;2225;53.568;13.266;2023-05-16T13:12:40;21.50;52.50
4425;DHT22;2225;53.568;13.266;2023-05-16T13:15:08;21.50;52.90
4425;DHT22;2225;53.568;13.266;2023-05-16T13:17:37;21.50;52.90
4425;DHT22;2225;53.568;13.266;2023-05-16T13:20:06;21.60;51.90
4425;DHT22;2225;53.568;13.266;2023-05-16T13:22:39;21.60;50.80
4425;DHT22;2225;53.568;13.266;2023-05-16T13:25:07;21.60;51.50
4425;DHT22;2225;53.568;13.266;2023-05-16T13:27:35;21.60;51.20
4425;DHT22;2225;53.568;13.266;2023-05-16T13:30:02;21.60;51.40
4425;DHT22;2225;53.568;13.266;2023-05-16T13:32:29;21.70;51.40
4425;DHT22;2225;53.568;13.266;2023-05-16T13:34:57;21.70;52.00
4425;DHT22;2225;53.568;13.266;2023-05-16T13:37:23;21.80;50.50
4425;DHT22;2225;53.568;13.266;2023-05-16T13:39:51;22.00;49.30
4425;DHT22;2225;53.568;13.266;2023-05-16T13:42:20;22.00;49.50
4425;DHT22;2225;53.568;13.266;2023-05-16T13:44:48;22.10;48.70
4425;DHT22;2225;53.568;13.266;2023-05-16T13:47:15;22.20;47.40
4425;DHT22;2225;53.568;13.266;2023-05-16T13:49:42;22.20;47.60
4425;DHT22;2225;53.568;13.266;2023-05-16T13:52:11;22.30;46.50
4425;DHT22;2225;53.568;13.266;2023-05-16T13:54:40;22.30;46.50
4425;DHT22;2225;53.568;13.266;2023-05-16T13:57:08;22.40;46.60
4425;DHT22;2225;53.568;13.266;2023-05-16T13:59:35;22.50;45.90
4425;DHT22;2225;53.568;13.266;2023-05-16T14:02:23;22.50;46.00
4425;DHT22;2225;53.568;13.266;2023-05-16T14:04:52;22.60;46.70
4425;DHT22;2225;53.568;13.266;2023-05-16T14:07:19;22.60;45.30
4425;DHT22;2225;53.568;13.266;2023-05-16T14:09:46;22.60;45.20
4425;DHT22;2225;53.568;13.266;2023-05-16T14:12:14;22.50;45.10
4425;DHT22;2225;53.568;13.266;2023-05-16T14:14:41;22.40;45.70
4425;DHT22;2225;53.568;13.266;2023-05-16T14:17:08;22.40;46.40
4425;DHT22;2225;53.568;13.266;2023-05-16T14:19:35;22.30;46.40
4425;DHT22;2225;53.568;13.266;2023-05-16T14:22:02;22.30;45.90
4425;DHT22;2225;53.568;13.266;2023-05-16T14:24:30;22.20;44.90
4425;DHT22;2225;53.568;13.266;2023-05-16T14:26:57;22.20;46.00
4425;DHT22;2225;53.568;13.266;2023-05-16T14:29:24;22.10;45.40
4425;DHT22;2225;53.568;13.266;2023-05-16T14:31:51;22.10;45.80
4425;DHT22;2225;53.568;13.266;2023-05-16T14:34:19;22.00;45.80
4425;DHT22;2225;53.568;13.266;2023-05-16T14:36:48;21.90;46.60
4425;DHT22;2225;53.568;13.266;2023-05-16T14:39:15;21.90;46.20
4425;DHT22;2225;53.568;13.266;2023-05-16T14:41:42;21.80;45.40
4425;DHT22;2225;53.568;13.266;2023-05-16T14:44:09;21.80;46.40
4425;DHT22;2225;53.568;13.266;2023-05-16T14:46:36;21.70;45.40
4425;DHT22;2225;53.568;13.266;2023-05-16T14:49:03;21.70;45.30
4425;DHT22;2225;53.568;13.266;2023-05-16T14:51:31;21.60;45.60
4425;DHT22;2225;53.568;13.266;2023-05-16T14:53:58;21.60;45.70
4425;DHT22;2225;53.568;13.266;2023-05-16T14:56:25;21.60;46.30
4425;DHT22;2225;53.568;13.266;2023-05-16T14:58:53;21.60;46.50
4425;DHT22;2225;53.568;13.266;2023-05-16T15:01:21;21.70;43.90
4425;DHT22;2225;53.568;13.266;2023-05-16T15:03:48;21.70;43.90
4425;DHT22;2225;53.568;13.266;2023-05-16T15:06:25;21.70;43.30
4425;DHT22;2225;53.568;13.266;2023-05-16T15:08:53;21.70;43.40
4425;DHT22;2225;53.568;13.266;2023-05-16T15:11:20;21.70;43.70
4425;DHT22;2225;53.568;13.266;2023-05-16T15:13:47;21.60;42.90
4425;DHT22;2225;53.568;13.266;2023-05-16T15:16:14;21.70;43.30
4425;DHT22;2225;53.568;13.266;2023-05-16T15:18:42;21.60;42.80
4425;DHT22;2225;53.568;13.266;2023-05-16T15:21:09;21.60;43.50
4425;DHT22;2225;53.568;13.266;2023-05-16T15:23:36;21.60;43.00
4425;DHT22;2225;53.568;13.266;2023-05-16T15:26:03;21.50;43.20
4425;DHT22;2225;53.568;13.266;2023-05-16T15:28:30;21.50;42.80
4425;DHT22;2225;53.568;13.266;2023-05-16T15:30:57;21.50;43.30
4425;DHT22;2225;53.568;13.266;2023-05-16T15:33:24;21.40;43.40
4425;DHT22;2225;53.568;13.266;2023-05-16T15:35:51;21.30;43.70
4425;DHT22;2225;53.568;13.266;2023-05-16T15:38:18;21.30;44.60
4425;DHT22;2225;53.568;13.266;2023-05-16T15:40:45;21.30;44.60
4425;DHT22;2225;53.568;13.266;2023-05-16T15:43:16;21.30;44.60
4425;DHT22;2225;53.568;13.266;2023-05-16T15:45:43;21.40;44.20
4425;DHT22;2225;53.568;13.266;2023-05-16T15:48:11;21.40;43.30
4425;DHT22;2225;53.568;13.266;2023-05-16T15:50:38;21.30;43.50
4425;DHT22;2225;53.568;13.266;2023-05-16T15:53:05;21.30;44.50
4425;DHT22;2225;53.568;13.266;2023-05-16T15:55:32;21.30;44.70
4425;DHT22;2225;53.568;13.266;2023-05-16T15:57:59;21.20;45.40
4425;DHT22;2225;53.568;13.266;2023-05-16T16:00:29;21.20;46.30
4425;DHT22;2225;53.568;13.266;2023-05-16T16:02:56;21.10;46.80
4425;DHT22;2225;53.568;13.266;2023-05-16T16:05:23;21.10;47.50
4425;DHT22;2225;53.568;13.266;2023-05-16T16:07:50;21.10;47.80
4425;DHT22;2225;53.568;13.266;2023-05-16T16:10:17;21.10;47.60
4425;DHT22;2225;53.568;13.266;2023-05-16T16:13:03;21.10;46.70
4425;DHT22;2225;53.568;13.266;2023-05-16T16:15:31;21.10;46.80
4425;DHT22;2225;53.568;13.266;2023-05-16T16:17:59;21.10;46.80
4425;DHT22;2225;53.568;13.266;2023-05-16T16:20:27;21.00;47.10
4425;DHT22;2225;53.568;13.266;2023-05-16T16:22:53;21.00;47.70
4425;DHT22;2225;53.568;13.266;2023-05-16T16:25:20;20.90;48.40